createdAt,value
2023-01-29T00:00:50.741Z,72.99
2023-01-29T00:03:41.296Z,73.32
2023-01-29T00:06:28.093Z,73.58
2023-01-29T00:09:14.711Z,73.79
2023-01-29T00:12:01.571Z,73.75
2023-01-29T00:14:48.238Z,73.91
2023-01-29T00:17:34.908Z,74.28
2023-01-29T00:20:21.565Z,74.51
2023-01-29T00:23:08.555Z,74.33
2023-01-29T00:25:55.245Z,74.54
2023-01-29T00:28:41.764Z,74.61
2023-01-29T00:31:28.952Z,74.87
2023-01-29T00:34:15.677Z,75.18
2023-01-29T00:37:08.914Z,75.25
2023-01-29T00:39:55.358Z,75.39
2023-01-29T00:43:02.760Z,75.23
2023-01-29T00:45:49.237Z,75.64
2023-01-29T00:48:36.278Z,74.95
2023-01-29T00:51:22.990Z,74.88
2023-01-29T00:54:09.642Z,74.97
2023-01-29T00:56:56.319Z,75.02
2023-01-29T00:59:43.069Z,74.99
2023-01-29T01:02:48.464Z,74.33
2023-01-29T01:05:36.863Z,74.34
2023-01-29T01:08:42.455Z,74.41
2023-01-29T01:11:28.900Z,74.63
2023-01-29T01:14:15.780Z,74.53
2023-01-29T01:17:03.154Z,74.48
2023-01-29T01:19:49.552Z,74.44
2023-01-29T01:22:36.090Z,73.79
2023-01-29T01:25:25.113Z,73.88
2023-01-29T01:28:12.185Z,74.04
2023-01-29T01:31:08.978Z,73.97
2023-01-29T01:33:55.737Z,73.75
2023-01-29T01:36:42.449Z,73.93
2023-01-29T01:39:29.514Z,74.37
2023-01-29T01:42:16.128Z,74.47
2023-01-29T01:45:06.430Z,74.45
2023-01-29T01:48:07.858Z,74.66
2023-01-29T01:51:04.432Z,74.48
2023-01-29T01:54:04.353Z,74.26
2023-01-29T01:57:04.932Z,74.17
2023-01-29T02:00:03.917Z,74.15
2023-01-29T02:03:09.399Z,74.25
2023-01-29T02:06:17.450Z,74.01
2023-01-29T02:09:35.542Z,74.09
2023-01-29T02:12:23.162Z,74.49
2023-01-29T02:15:10.915Z,74.38
2023-01-29T02:18:00.021Z,74.30
2023-01-29T02:21:09.838Z,74.62
2023-01-29T02:24:13.070Z,74.75
2023-01-29T02:27:07.806Z,74.58
2023-01-29T02:30:08.356Z,74.63
2023-01-29T02:33:09.708Z,74.58
2023-01-29T02:36:11.630Z,74.86
2023-01-29T02:39:34.090Z,75.11
2023-01-29T02:42:30.855Z,74.83
2023-01-29T02:45:31.729Z,75.05
2023-01-29T02:48:22.491Z,75.13
2023-01-29T02:51:24.621Z,75.26
2023-01-29T02:54:25.004Z,75.16
2023-01-29T02:57:24.071Z,74.90
2023-01-29T03:00:18.774Z,75.16
2023-01-29T03:03:16.363Z,75.28
2023-01-29T03:06:22.444Z,75.35
2023-01-29T03:09:16.568Z,75.66
2023-01-29T03:12:34.071Z,75.65
2023-01-29T03:15:27.238Z,76.12
2023-01-29T03:18:28.338Z,76.44
2023-01-29T03:21:39.392Z,76.49
2023-01-29T03:25:10.689Z,76.25
2023-01-29T03:28:18.997Z,76.43
2023-01-29T03:31:28.818Z,76.54
2023-01-29T03:34:44.950Z,76.70
2023-01-29T03:37:46.392Z,76.80
2023-01-29T03:40:58.147Z,76.66
2023-01-29T03:44:40.428Z,76.93
2023-01-29T03:47:42.282Z,76.86
2023-01-29T03:50:42.894Z,77.13
2023-01-29T03:53:51.693Z,77.15
2023-01-29T03:57:16.079Z,77.23
2023-01-29T04:00:21.265Z,77.15
2023-01-29T04:03:19.754Z,77.34
2023-01-29T04:06:20.773Z,77.42
2023-01-29T04:09:37.492Z,77.37
2023-01-29T04:12:35.937Z,77.33
2023-01-29T04:15:26.018Z,77.43
2023-01-29T04:18:12.443Z,77.42
2023-01-29T04:21:01.355Z,77.51
2023-01-29T04:23:47.797Z,77.62
2023-01-29T04:27:03.591Z,77.30
2023-01-29T04:30:17.021Z,77.30
2023-01-29T04:33:08.931Z,77.33
2023-01-29T04:36:08.403Z,77.21
2023-01-29T04:39:23.878Z,77.19
2023-01-29T04:42:29.908Z,77.33
2023-01-29T04:45:41.027Z,77.43
2023-01-29T04:48:45.743Z,77.41
2023-01-29T04:51:43.567Z,77.39
2023-01-29T04:54:51.933Z,77.13
2023-01-29T04:58:07.081Z,77.30
2023-01-29T05:00:54.743Z,77.22
2023-01-29T05:03:44.368Z,77.01
2023-01-29T05:06:32.713Z,77.00
2023-01-29T05:09:20.021Z,77.04
2023-01-29T05:12:09.965Z,77.13
2023-01-29T05:15:02.211Z,77.01
2023-01-29T05:17:48.825Z,77.03
2023-01-29T05:20:39.447Z,77.07
2023-01-29T05:23:26.232Z,77.08
2023-01-29T05:26:31.441Z,77.03
2023-01-29T05:29:18.096Z,77.24
2023-01-29T05:32:05.260Z,77.26
2023-01-29T05:34:51.707Z,77.14
2023-01-29T05:37:40.552Z,77.13
2023-01-29T05:40:27.205Z,76.78
2023-01-29T05:43:16.948Z,76.87
2023-01-29T05:46:04.410Z,77.06
2023-01-29T05:48:53.130Z,76.81
2023-01-29T05:51:39.614Z,76.95
2023-01-29T05:54:26.130Z,76.98
2023-01-29T05:57:12.565Z,77.00
2023-01-29T05:59:59.207Z,76.86
2023-01-29T06:02:46.330Z,76.76
2023-01-29T06:05:33.257Z,76.92
2023-01-29T06:08:19.866Z,76.82
2023-01-29T06:11:12.052Z,76.87
2023-01-29T06:13:58.525Z,77.01
2023-01-29T06:16:45.247Z,77.07
2023-01-29T06:19:31.844Z,77.06
2023-01-29T06:22:18.487Z,77.00
2023-01-29T06:25:05.478Z,76.95
2023-01-29T06:27:52.100Z,76.88
2023-01-29T06:30:38.787Z,76.75
2023-01-29T06:33:25.698Z,76.84
2023-01-29T06:36:12.421Z,77.01
2023-01-29T06:38:59.054Z,76.97
2023-01-29T06:41:46.418Z,76.76
2023-01-29T06:44:32.764Z,76.59
2023-01-29T06:47:20.574Z,76.47
2023-01-29T06:50:07.201Z,76.79
2023-01-29T06:52:53.931Z,76.74
2023-01-29T06:55:40.679Z,76.68
2023-01-29T06:58:28.182Z,76.55
2023-01-29T07:01:29.314Z,76.36
2023-01-29T07:04:21.514Z,76.23
2023-01-29T07:07:13.217Z,76.05
2023-01-29T07:09:59.993Z,76.11
2023-01-29T07:12:46.551Z,76.06
2023-01-29T07:15:33.131Z,76.23
2023-01-29T07:18:19.779Z,76.02
2023-01-29T07:21:10.134Z,75.68
2023-01-29T07:23:59.556Z,75.37
2023-01-29T07:26:46.192Z,75.47
2023-01-29T07:29:32.711Z,75.42
2023-01-29T07:32:19.265Z,75.22
2023-01-29T07:35:07.902Z,75.16
2023-01-29T07:37:54.864Z,74.78
2023-01-29T07:41:32.117Z,75.08
2023-01-29T07:44:20.525Z,74.92
2023-01-29T07:47:07.165Z,74.75
2023-01-29T07:50:28.870Z,74.94
2023-01-29T07:53:15.008Z,74.80
2023-01-29T07:56:02.975Z,74.97
2023-01-29T07:58:47.925Z,74.76
2023-01-29T08:01:33.163Z,74.62
2023-01-29T08:04:18.199Z,74.55
2023-01-29T08:07:04.223Z,74.84
2023-01-29T08:09:49.273Z,74.61
2023-01-29T08:12:34.412Z,74.83
2023-01-29T08:15:19.368Z,74.77
2023-01-29T08:18:07.531Z,74.52
2023-01-29T08:20:53.197Z,74.52
2023-01-29T08:23:39.641Z,74.60
2023-01-29T08:26:26.612Z,74.57
2023-01-29T08:33:39.278Z,74.55
2023-01-29T08:36:39.880Z,74.16
2023-01-29T08:39:26.535Z,73.93
2023-01-29T08:42:14.345Z,73.90
2023-01-29T08:45:01.120Z,73.90
2023-01-29T08:47:49.203Z,74.07
2023-01-29T08:50:44.584Z,74.17
2023-01-29T08:54:49.006Z,74.22
2023-01-29T08:58:36.514Z,74.39
2023-01-29T09:01:58.700Z,74.36
2023-01-29T09:05:53.783Z,74.31
2023-01-29T09:09:54.038Z,73.83
2023-01-29T09:19:26.223Z,74.52
2023-01-29T09:33:49.681Z,74.31
2023-01-29T09:36:36.210Z,74.84
2023-01-29T09:39:22.731Z,75.50
2023-01-29T09:42:18.288Z,75.78
2023-01-29T09:45:06.971Z,76.24
2023-01-29T09:48:13.378Z,76.81
2023-01-29T09:51:06.063Z,77.44
2023-01-29T09:54:32.571Z,77.50
2023-01-29T09:58:41.204Z,76.45
2023-01-29T10:03:04.572Z,75.37
2023-01-29T10:07:01.671Z,75.10
2023-01-29T10:11:13.198Z,74.30
2023-01-29T10:25:50.265Z,75.53
2023-01-29T10:39:21.407Z,78.33
2023-01-29T10:42:42.958Z,79.19
2023-01-29T10:57:43.308Z,79.83
2023-01-29T11:00:45.947Z,79.36
2023-01-29T11:04:45.108Z,79.70
2023-01-29T11:12:50.944Z,81.63
2023-01-29T11:16:29.737Z,82.07
2023-01-29T11:19:47.557Z,82.13
2023-01-29T11:24:16.859Z,82.22
2023-01-29T11:27:51.826Z,81.63
2023-01-29T11:31:02.542Z,81.35
2023-01-29T11:45:53.257Z,80.34
2023-01-29T11:49:14.184Z,80.54
2023-01-29T11:52:42.405Z,81.21
2023-01-29T11:56:51.861Z,81.17
2023-01-29T11:59:51.959Z,81.08
2023-01-29T12:02:46.179Z,81.18
2023-01-29T12:05:33.706Z,81.01
2023-01-29T12:08:22.891Z,81.02
2023-01-29T12:11:24.530Z,81.00
2023-01-29T12:14:34.051Z,81.25
2023-01-29T12:17:26.792Z,81.84
2023-01-29T12:20:23.337Z,82.14
2023-01-29T12:23:48.584Z,82.24
2023-01-29T12:26:46.753Z,82.70
2023-01-29T12:29:40.565Z,82.72
2023-01-29T12:32:35.818Z,82.76
2023-01-29T12:37:19.286Z,83.13
2023-01-29T12:41:21.631Z,83.37
2023-01-29T12:44:21.156Z,83.49
2023-01-29T12:47:22.530Z,83.19
2023-01-29T12:50:27.653Z,83.29
2023-01-29T12:53:14.305Z,83.32
2023-01-29T12:56:11.195Z,83.13
2023-01-29T12:59:01.576Z,83.27
2023-01-29T13:02:00.328Z,83.48
2023-01-29T13:04:54.380Z,83.94
2023-01-29T13:07:50.469Z,83.84
2023-01-29T13:10:44.439Z,83.67
2023-01-29T13:13:37.142Z,83.84
2023-01-29T13:16:30.470Z,83.91
2023-01-29T13:19:29.566Z,83.98
2023-01-29T13:22:28.920Z,83.90
2023-01-29T13:25:20.170Z,83.71
2023-01-29T13:28:17.742Z,83.82
2023-01-29T13:31:13.857Z,83.92
2023-01-29T13:34:15.158Z,84.34
2023-01-29T13:37:09.540Z,85.11
2023-01-29T13:39:58.246Z,85.46
2023-01-29T13:42:50.055Z,85.77
2023-01-29T13:45:44.671Z,85.93
2023-01-29T13:48:32.550Z,85.84
2023-01-29T13:51:22.883Z,85.74
2023-01-29T13:54:20.818Z,86.04
2023-01-29T13:57:40.177Z,86.26
2023-01-29T14:00:36.079Z,86.65
2023-01-29T14:03:25.784Z,86.60
2023-01-29T14:06:40.442Z,86.64
2023-01-29T14:09:53.780Z,86.79
2023-01-29T14:15:23.932Z,86.75
2023-01-29T14:19:26.621Z,86.82
2023-01-29T14:23:47.425Z,87.22
2023-01-29T14:42:37.637Z,88.06
2023-01-29T14:45:53.884Z,88.20
2023-01-29T15:00:42.826Z,88.08
2023-01-29T15:11:25.334Z,88.86
2023-01-29T15:16:28.182Z,89.28
2023-01-29T15:30:28.986Z,88.40
2023-01-29T15:43:58.945Z,88.53
2023-01-29T16:12:00.691Z,89.14
2023-01-29T16:15:33.638Z,89.75
2023-01-29T16:43:17.867Z,90.41
2023-01-29T16:57:41.910Z,90.96
2023-01-29T17:00:47.555Z,91.42
2023-01-29T17:15:42.652Z,92.20
2023-01-29T17:18:41.099Z,92.44
2023-01-29T17:21:30.464Z,92.53
2023-01-29T17:24:17.113Z,92.44
2023-01-29T17:27:03.729Z,92.63
2023-01-29T17:29:52.549Z,92.55
2023-01-29T17:34:12.652Z,92.46
2023-01-29T17:36:59.148Z,92.29
2023-01-29T17:40:28.255Z,92.22
2023-01-29T17:43:15.246Z,92.23
2023-01-29T17:46:06.210Z,92.27
2023-01-29T17:49:36.107Z,92.16
2023-01-29T17:52:22.836Z,92.19
2023-01-29T17:55:13.011Z,91.90
2023-01-29T17:57:59.532Z,91.91
2023-01-29T18:03:12.707Z,91.89
2023-01-29T18:06:51.186Z,91.82
2023-01-29T18:21:31.991Z,90.46
2023-01-29T18:25:39.820Z,90.17
2023-01-29T18:29:28.905Z,89.98
2023-01-29T18:43:17.235Z,90.05
2023-01-29T18:46:04.931Z,90.12
2023-01-29T18:48:52.187Z,90.06
2023-01-29T18:51:42.061Z,90.05
2023-01-29T18:56:24.336Z,90.22
2023-01-29T19:00:12.748Z,90.31
2023-01-29T19:02:58.682Z,90.25
2023-01-29T19:05:44.388Z,90.18
2023-01-29T19:08:30.700Z,90.04
2023-01-29T19:11:16.257Z,89.86
2023-01-29T19:14:01.997Z,89.60
2023-01-29T19:16:47.222Z,89.60
2023-01-29T19:19:32.372Z,89.58
2023-01-29T19:22:18.316Z,89.70
2023-01-29T19:26:26.808Z,89.72
2023-01-29T19:29:13.682Z,89.68
2023-01-29T19:32:01.360Z,89.76
2023-01-29T19:34:47.908Z,89.81
2023-01-29T19:37:34.808Z,89.76
2023-01-29T19:51:16.814Z,88.96
2023-01-29T19:54:15.639Z,88.95
2023-01-29T20:09:05.814Z,89.00
2023-01-29T20:12:34.400Z,89.09
2023-01-29T20:15:54.080Z,89.37
2023-01-29T20:19:22.360Z,89.49
2023-01-29T20:33:22.190Z,89.54
2023-01-29T20:36:37.246Z,89.36
2023-01-29T20:50:30.353Z,88.87
2023-01-29T20:53:28.535Z,88.77
2023-01-29T20:57:23.716Z,88.68
2023-01-29T21:11:49.380Z,88.03
2023-01-29T21:14:36.275Z,88.10
2023-01-29T21:17:28.499Z,88.21
2023-01-29T21:20:16.557Z,88.20
2023-01-29T21:24:54.601Z,88.67
2023-01-29T21:28:27.475Z,88.79
2023-01-29T21:42:48.364Z,89.27
2023-01-29T21:45:55.256Z,89.29
2023-01-29T21:49:44.480Z,89.63
2023-01-29T21:53:04.018Z,89.83
2023-01-29T21:56:39.578Z,90.00
2023-01-29T22:00:39.629Z,90.09
2023-01-29T22:04:18.135Z,90.18
2023-01-29T22:08:16.380Z,90.34
2023-01-29T22:11:09.090Z,90.37
2023-01-29T22:13:54.450Z,90.30
2023-01-29T22:16:39.710Z,90.13
2023-01-29T22:25:29.990Z,90.13
2023-01-29T22:29:32.281Z,90.03
2023-01-29T22:33:29.138Z,90.16
2023-01-29T22:37:24.353Z,90.43
2023-01-29T22:41:40.221Z,90.70
2023-01-29T22:44:25.372Z,90.82
2023-01-29T22:47:10.751Z,90.95
2023-01-29T22:49:55.701Z,90.95
2023-01-29T22:52:42.102Z,90.99
2023-01-29T22:57:51.453Z,90.72
2023-01-29T23:01:49.298Z,90.94
2023-01-29T23:06:06.103Z,90.97
2023-01-29T23:09:25.173Z,90.93
2023-01-29T23:13:20.627Z,90.76
2023-01-29T23:17:19.886Z,90.94
2023-01-29T23:21:14.739Z,90.83
2023-01-29T23:25:11.632Z,90.78
2023-01-29T23:30:47.915Z,90.58
2023-01-29T23:35:04.990Z,90.42
2023-01-29T23:38:39.971Z,90.47
2023-01-29T23:41:25.393Z,90.48
2023-01-29T23:44:10.524Z,90.44
2023-01-29T23:47:21.727Z,90.40
2023-01-29T23:50:07.673Z,90.19
2023-01-29T23:52:52.995Z,89.98
2023-01-29T23:55:38.262Z,89.84
2023-01-29T23:58:23.807Z,89.76
